Time;durP1;ratioP1;P1;durP2;ratioP2;P2;SDS_P1;SDS_P2;PMS_P1;PMS_P2;Temp;Humidity;BMP_temperature;BMP_pressure;BME280_temperature;BME280_humidity;BME280_pressure;Samples;Min_cycle;Max_cycle;Signal;HPM_P1;HPM_P2
2023/06/26 00:01:30;;;;;;;8.77;6.90;;;;;;;22.38;64.66;98743.25;4948025;28;20062;-77
2023/06/26 00:03:56;;;;;;;7.70;6.90;;;;;;;22.64;63.91;98753.22;4959358;28;20043;-77
2023/06/26 00:06:25;;;;;;;8.80;7.55;;;;;;;22.67;63.74;98755.28;4947229;28;20051;-78
2023/06/26 00:08:54;;;;;;;8.95;6.88;;;;;;;22.69;63.54;98750.31;4961881;28;20038;-77
2023/06/26 00:11:21;;;;;;;6.85;6.15;;;;;;;22.68;63.68;98746.78;4964273;28;20030;-77
2023/06/26 00:13:46;;;;;;;11.32;6.95;;;;;;;22.72;63.37;98741.47;4965297;28;20077;-77
2023/06/26 00:16:12;;;;;;;8.43;6.95;;;;;;;22.67;63.47;98750.63;4955617;28;20127;-77
2023/06/26 00:18:37;;;;;;;9.95;6.75;;;;;;;22.65;63.47;98738.50;4957303;28;20498;-77
2023/06/26 00:21:02;;;;;;;8.27;6.95;;;;;;;22.51;63.76;98733.25;4956488;28;20130;-77
2023/06/26 00:23:30;;;;;;;12.52;7.25;;;;;;;22.55;63.66;98745.06;4945570;28;20121;-77
2023/06/26 00:25:56;;;;;;;8.77;7.22;;;;;;;22.48;63.83;98743.97;4960743;28;20058;-77
2023/06/26 00:28:21;;;;;;;8.60;6.80;;;;;;;22.40;64.22;98737.47;4963009;28;20022;-77
2023/06/26 00:30:46;;;;;;;9.77;7.60;;;;;;;22.44;63.90;98735.69;4963062;28;20065;-77
2023/06/26 00:33:12;;;;;;;8.95;6.82;;;;;;;22.49;63.82;98740.16;4959258;28;20035;-77
2023/06/26 00:35:37;;;;;;;7.72;6.97;;;;;;;22.49;63.66;98734.72;4961700;28;20507;-77
2023/06/26 00:38:02;;;;;;;13.05;7.43;;;;;;;22.42;63.72;98735.22;4950223;28;20035;-77
2023/06/26 00:40:28;;;;;;;8.38;7.22;;;;;;;22.31;63.93;98729.38;4948232;28;20045;-77
2023/06/26 00:42:53;;;;;;;7.95;6.70;;;;;;;22.35;64.09;98733.03;4952683;28;20032;-78
2023/06/26 00:45:19;;;;;;;7.80;6.95;;;;;;;22.26;64.07;98732.25;4953124;28;20086;-77
2023/06/26 00:47:44;;;;;;;11.25;7.80;;;;;;;22.23;64.26;98729.41;4958858;28;20224;-77
2023/06/26 00:50:10;;;;;;;11.07;6.95;;;;;;;22.24;64.01;98723.63;4954707;28;20019;-77
2023/06/26 00:52:37;;;;;;;7.20;6.32;;;;;;;22.19;64.28;98728.47;4947611;28;20039;-77
2023/06/26 00:55:02;;;;;;;13.75;7.15;;;;;;;22.08;64.62;98724.53;4957507;28;20114;-77
2023/06/26 00:57:28;;;;;;;8.27;6.97;;;;;;;22.08;64.36;98724.53;4964629;28;20169;-77
2023/06/26 00:59:53;;;;;;;9.27;6.47;;;;;;;22.07;64.54;98720.19;4948546;28;20121;-77
2023/06/26 01:02:20;;;;;;;7.88;6.57;;;;;;;22.09;64.34;98718.75;4958495;28;20038;-77
2023/06/26 01:04:49;;;;;;;8.70;7.32;;;;;;;22.04;64.43;98724.34;4950130;28;20027;-77
2023/06/26 01:07:18;;;;;;;9.20;7.28;;;;;;;21.96;64.80;98724.41;4957383;28;20103;-77
2023/06/26 01:09:46;;;;;;;9.52;6.78;;;;;;;21.89;64.94;98724.09;4969613;28;20031;-77
2023/06/26 01:12:11;;;;;;;7.70;6.93;;;;;;;21.88;65.01;98723.31;4961276;28;20035;-77
2023/06/26 01:14:37;;;;;;;6.90;6.20;;;;;;;21.83;64.99;98707.19;4965523;28;20173;-77
2023/06/26 01:17:03;;;;;;;8.52;6.57;;;;;;;21.95;64.63;98715.44;4965770;28;20032;-77
2023/06/26 01:19:33;;;;;;;11.25;6.63;;;;;;;21.87;64.44;98710.84;4963387;28;20042;-78
2023/06/26 01:22:01;;;;;;;8.05;6.68;;;;;;;21.87;64.73;98701.88;4967543;28;20022;-77
2023/06/26 01:24:33;;;;;;;8.65;6.53;;;;;;;21.73;65.05;98712.94;4961285;28;20109;-77
2023/06/26 01:27:00;;;;;;;8.10;6.43;;;;;;;21.73;65.08;98701.28;4960615;28;20034;-77
2023/06/26 01:29:27;;;;;;;9.38;7.25;;;;;;;21.75;64.99;98716.13;4965023;28;20538;-77
2023/06/26 01:31:53;;;;;;;12.40;6.15;;;;;;;21.69;65.04;98701.09;4951092;28;20377;-77
2023/06/26 01:34:18;;;;;;;9.48;6.57;;;;;;;21.69;65.28;98706.53;4969298;28;20094;-77
2023/06/26 01:36:48;;;;;;;8.90;7.15;;;;;;;21.68;65.07;98702.25;4961853;28;20034;-77
2023/06/26 01:39:19;;;;;;;7.65;6.68;;;;;;;21.65;65.29;98700.16;4956115;28;20046;-77
2023/06/26 01:41:45;;;;;;;8.02;6.00;;;;;;;21.60;65.28;98682.13;4966561;28;20371;-77
2023/06/26 01:44:14;;;;;;;9.70;6.93;;;;;;;21.60;65.10;98695.69;4963665;28;20027;-77
2023/06/26 01:46:48;;;;;;;7.72;6.50;;;;;;;21.67;65.21;98692.50;4960590;28;20027;-77
2023/06/26 01:49:43;;;;;;;7.95;6.38;;;;;;;21.64;65.15;98696.66;4961994;28;20043;-77
2023/06/26 01:52:14;;;;;;;7.95;7.07;;;;;;;21.63;65.25;98689.63;4964411;28;20027;-77
2023/06/26 01:55:06;;;;;;;8.88;6.63;;;;;;;21.51;65.47;98691.44;4967306;28;20063;-77
2023/06/26 01:57:35;;;;;;;7.75;6.85;;;;;;;21.56;65.50;98691.25;4953367;28;20545;-77
2023/06/26 02:00:01;;;;;;;8.75;7.22;;;;;;;21.37;65.54;98677.22;4960656;28;20027;-77
2023/06/26 02:02:28;;;;;;;9.48;6.97;;;;;;;21.30;65.93;98671.50;4957954;28;20069;-77
2023/06/26 02:04:54;;;;;;;9.55;6.68;;;;;;;21.24;66.07;98687.16;4957886;28;20098;-77
2023/06/26 02:07:19;;;;;;;9.18;6.60;;;;;;;21.22;66.00;98675.81;4959728;28;20040;-77
2023/06/26 02:09:45;;;;;;;7.80;6.90;;;;;;;21.23;66.10;98676.63;4960192;28;20069;-77
2023/06/26 02:12:10;;;;;;;8.15;6.68;;;;;;;21.13;66.09;98668.81;4967192;28;20062;-77
2023/06/26 02:14:36;;;;;;;10.95;6.80;;;;;;;21.14;66.06;98673.94;4950453;28;20507;-77
2023/06/26 02:17:01;;;;;;;8.50;7.45;;;;;;;21.08;66.01;98666.28;4963822;28;20049;-77
2023/06/26 02:19:27;;;;;;;7.80;6.82;;;;;;;21.14;66.20;98667.69;4948664;28;20058;-78
2023/06/26 02:21:53;;;;;;;12.05;7.22;;;;;;;21.06;66.36;98652.19;4957590;28;20038;-77
2023/06/26 02:24:19;;;;;;;11.88;6.70;;;;;;;21.06;66.20;98660.34;4964102;28;20042;-77
2023/06/26 02:26:44;;;;;;;14.35;7.07;;;;;;;21.11;66.04;98662.91;4962585;28;20478;-77
2023/06/26 02:29:09;;;;;;;7.95;6.72;;;;;;;20.96;66.55;98664.16;4962143;28;20035;-77
2023/06/26 02:31:35;;;;;;;10.82;7.50;;;;;;;20.98;66.49;98672.78;4969398;28;20090;-78
2023/06/26 02:34:00;;;;;;;9.95;6.97;;;;;;;20.99;66.41;98660.03;4962956;28;20442;-77
2023/06/26 02:36:25;;;;;;;8.65;6.63;;;;;;;21.01;66.29;98665.94;4949858;28;20054;-78
2023/06/26 02:38:51;;;;;;;11.13;6.20;;;;;;;20.91;66.48;98648.84;4963000;28;20070;-78
2023/06/26 02:41:19;;;;;;;7.35;6.53;;;;;;;21.00;66.24;98661.59;4959353;28;20027;-78
2023/06/26 02:43:45;;;;;;;10.70;7.30;;;;;;;20.82;66.81;98639.09;4944580;28;20027;-77
2023/06/26 02:46:10;;;;;;;9.13;6.30;;;;;;;20.84;66.37;98645.00;4950237;28;20031;-78
2023/06/26 02:48:35;;;;;;;9.65;7.18;;;;;;;20.81;66.64;98653.81;4965305;28;20049;-78
2023/06/26 02:51:01;;;;;;;9.18;7.90;;;;;;;20.98;66.03;98658.41;4960544;28;20347;-78
2023/06/26 02:53:26;;;;;;;9.25;7.40;;;;;;;20.92;66.13;98655.09;4962402;28;20030;-78
2023/06/26 02:55:51;;;;;;;9.15;7.32;;;;;;;20.99;66.08;98662.75;4963198;28;20447;-77
2023/06/26 02:58:17;;;;;;;10.88;6.70;;;;;;;20.88;66.20;98649.47;4948015;28;20038;-78
2023/06/26 03:00:43;;;;;;;10.27;7.68;;;;;;;20.89;66.17;98653.00;4956575;28;20127;-78
2023/06/26 03:03:09;;;;;;;7.95;7.15;;;;;;;20.86;66.25;98645.47;4944820;28;20035;-78
2023/06/26 03:05:34;;;;;;;8.05;7.22;;;;;;;20.88;66.28;98644.06;4965210;28;20034;-77
2023/06/26 03:07:59;;;;;;;11.65;7.50;;;;;;;20.83;66.38;98648.84;4954201;28;20042;-77
2023/06/26 03:10:25;;;;;;;8.40;6.82;;;;;;;20.67;66.74;98639.59;4947740;28;20090;-77
2023/06/26 03:12:50;;;;;;;8.40;6.75;;;;;;;20.71;66.77;98645.97;4941595;28;20066;-77
2023/06/26 03:15:16;;;;;;;8.43;7.28;;;;;;;20.76;66.74;98645.81;4952103;28;20038;-78
2023/06/26 03:17:41;;;;;;;8.63;6.88;;;;;;;20.72;66.42;98642.16;4952625;28;20031;-77
2023/06/26 03:20:07;;;;;;;9.95;6.60;;;;;;;20.75;66.55;98646.94;4961333;28;20031;-78
2023/06/26 03:22:33;;;;;;;9.00;7.03;;;;;;;20.63;66.63;98636.72;4949483;28;20054;-78
2023/06/26 03:24:59;;;;;;;9.48;6.85;;;;;;;20.66;66.88;98646.16;4967965;28;20039;-78
2023/06/26 03:27:25;;;;;;;11.52;7.10;;;;;;;20.58;66.99;98652.34;4955229;28;20086;-78
2023/06/26 03:29:52;;;;;;;6.78;6.05;;;;;;;20.44;67.07;98644.38;4961098;28;20475;-78
2023/06/26 03:32:17;;;;;;;10.75;7.40;;;;;;;20.48;67.39;98656.19;4963507;28;20027;-78
2023/06/26 03:34:42;;;;;;;9.93;6.65;;;;;;;20.46;67.37;98644.84;4957164;28;20053;-78
2023/06/26 03:37:08;;;;;;;8.43;7.05;;;;;;;20.48;67.39;98648.06;4962110;28;20030;-78
2023/06/26 03:39:33;;;;;;;9.15;6.85;;;;;;;20.51;67.19;98650.09;4960241;28;20042;-77
2023/06/26 03:42:00;;;;;;;9.57;6.43;;;;;;;20.56;66.97;98636.41;4933888;28;20038;-77
2023/06/26 03:44:26;;;;;;;7.35;6.50;;;;;;;20.61;66.95;98641.69;4955487;28;20039;-77
2023/06/26 03:46:52;;;;;;;10.32;6.50;;;;;;;20.56;67.13;98639.13;4964339;28;20444;-77
2023/06/26 03:49:17;;;;;;;7.88;6.88;;;;;;;20.50;67.31;98632.25;4959289;28;20114;-77
2023/06/26 03:51:43;;;;;;;10.10;6.30;;;;;;;20.52;67.33;98640.06;4957910;28;20082;-77
2023/06/26 03:54:09;;;;;;;9.02;7.13;;;;;;;20.49;67.66;98635.25;4960812;28;20037;-77
2023/06/26 03:56:34;;;;;;;7.28;6.03;;;;;;;20.47;67.72;98638.31;4959207;28;20035;-77
2023/06/26 03:59:00;;;;;;;7.85;6.72;;;;;;;20.44;67.68;98635.44;4957899;28;20762;-77
2023/06/26 04:01:25;;;;;;;8.88;6.45;;;;;;;20.48;67.61;98634.50;4956653;28;20035;-77
2023/06/26 04:03:51;;;;;;;9.70;6.65;;;;;;;20.59;67.46;98641.19;4949924;28;20030;-77
2023/06/26 04:06:16;;;;;;;10.07;6.47;;;;;;;20.62;67.61;98629.69;4957841;28;20031;-77
2023/06/26 04:08:41;;;;;;;9.68;6.35;;;;;;;20.73;67.35;98635.59;4962211;28;20058;-77
2023/06/26 04:11:07;;;;;;;9.43;6.43;;;;;;;20.76;67.24;98629.53;4959078;28;20082;-77
2023/06/26 04:13:32;;;;;;;10.23;6.90;;;;;;;20.76;67.09;98627.63;4962886;28;20031;-77
2023/06/26 04:15:57;;;;;;;8.98;7.28;;;;;;;20.87;67.16;98630.81;4960953;28;20556;-76
2023/06/26 04:18:23;;;;;;;7.35;6.57;;;;;;;20.59;68.89;98635.78;4963751;28;20031;-77
2023/06/26 04:21:07;;;;;;;10.20;7.00;;;;;;;20.91;67.27;98631.75;4965503;28;20062;-76
2023/06/26 04:23:33;;;;;;;8.07;6.68;;;;;;;21.02;67.10;98638.47;4949683;28;20097;-77
2023/06/26 04:25:59;;;;;;;9.30;6.45;;;;;;;21.06;67.23;98639.44;4961258;28;20037;-76
2023/06/26 04:28:25;;;;;;;8.65;6.20;;;;;;;21.10;67.16;98636.91;4960453;28;20022;-76
2023/06/26 04:30:50;;;;;;;7.32;6.63;;;;;;;21.05;67.74;98637.06;4956416;28;20066;-76
2023/06/26 04:33:16;;;;;;;10.77;7.88;;;;;;;20.90;70.09;98643.75;4968515;28;20043;-76
2023/06/26 04:35:44;;;;;;;8.05;7.25;;;;;;;21.00;68.91;98637.97;4959295;28;20042;-76
2023/06/26 04:38:10;;;;;;;7.43;6.70;;;;;;;21.08;69.38;98633.72;4959870;28;20035;-76
2023/06/26 04:40:35;;;;;;;6.93;6.22;;;;;;;21.34;67.10;98629.78;4965793;28;20030;-76
2023/06/26 04:43:01;;;;;;;10.18;8.60;;;;;;;21.31;69.71;98635.88;4960575;28;20066;-76
2023/06/26 04:45:26;;;;;;;14.52;7.15;;;;;;;21.34;71.29;98640.66;4952810;28;20059;-76
2023/06/26 04:47:51;;;;;;;10.23;6.95;;;;;;;21.47;67.27;98636.16;4961866;28;20472;-76
2023/06/26 04:50:18;;;;;;;8.75;7.18;;;;;;;21.58;70.46;98637.38;4949352;28;20039;-76
2023/06/26 04:52:44;;;;;;;11.68;7.05;;;;;;;21.63;67.64;98613.56;4960993;28;20403;-76
2023/06/26 04:55:09;;;;;;;8.63;7.53;;;;;;;21.69;68.06;98635.91;4963126;28;20027;-77
2023/06/26 04:57:34;;;;;;;10.13;6.50;;;;;;;21.74;67.69;98619.44;4934935;28;20035;-76
2023/06/26 05:00:02;;;;;;;8.90;7.05;;;;;;;22.07;65.33;98631.28;4966283;28;20036;-78
2023/06/26 05:02:29;;;;;;;8.52;7.72;;;;;;;22.23;67.31;98626.88;4959560;28;20031;-79
2023/06/26 05:04:54;;;;;;;9.68;7.15;;;;;;;22.46;64.46;98627.34;4963903;28;20109;-79
2023/06/26 05:07:20;;;;;;;7.65;6.70;;;;;;;22.43;64.11;98621.78;4964639;28;20154;-78
2023/06/26 05:09:45;;;;;;;10.32;6.97;;;;;;;22.53;64.48;98624.09;4964234;28;21855;-78
2023/06/26 05:12:11;;;;;;;9.05;7.82;;;;;;;22.44;65.49;98618.72;4955311;28;20058;-78
2023/06/26 05:14:37;;;;;;;12.45;7.05;;;;;;;22.30;66.12;98604.59;4965369;28;20031;-78
2023/06/26 05:17:03;;;;;;;10.93;7.57;;;;;;;22.22;66.49;98625.28;4950524;28;20054;-78
2023/06/26 05:19:31;;;;;;;7.65;6.85;;;;;;;22.09;67.09;98614.63;4968312;28;20093;-78
2023/06/26 05:21:59;;;;;;;11.50;8.15;;;;;;;22.28;66.15;98604.09;4970632;28;20031;-78
2023/06/26 05:24:25;;;;;;;8.70;7.90;;;;;;;22.22;66.91;98608.97;4968392;28;20508;-78
2023/06/26 05:26:51;;;;;;;8.43;7.50;;;;;;;22.52;65.32;98609.69;4962608;28;20045;-78
2023/06/26 05:29:17;;;;;;;10.55;8.10;;;;;;;22.50;66.12;98608.47;4954118;28;20035;-78
2023/06/26 05:31:45;;;;;;;12.05;8.90;;;;;;;22.24;69.30;98603.97;4965389;28;20050;-78
2023/06/26 05:34:11;;;;;;;9.27;7.57;;;;;;;22.47;65.68;98609.09;4952464;28;20563;-78
2023/06/26 05:36:44;;;;;;;9.45;7.80;;;;;;;22.47;65.98;98606.38;4962838;28;20086;-80
2023/06/26 05:39:10;;;;;;;10.38;8.10;;;;;;;22.50;67.34;98603.03;4964223;28;20031;-77
2023/06/26 05:41:35;;;;;;;8.25;7.45;;;;;;;22.44;66.08;98596.97;4942256;28;20043;-77
2023/06/26 05:44:01;;;;;;;10.45;7.75;;;;;;;22.38;68.87;98604.53;4944432;28;20106;-77
2023/06/26 05:46:26;;;;;;;10.32;8.13;;;;;;;22.23;70.04;98596.97;4967929;28;20027;-77
2023/06/26 05:48:52;;;;;;;11.10;8.63;;;;;;;22.15;71.40;98594.28;4963770;28;20118;-77
2023/06/26 05:51:17;;;;;;;10.75;8.57;;;;;;;22.24;69.26;98581.44;4962414;28;20041;-77
2023/06/26 05:53:43;;;;;;;8.75;7.38;;;;;;;22.71;69.68;98582.84;4961395;28;20411;-77
2023/06/26 05:56:09;;;;;;;10.57;8.55;;;;;;;22.60;69.40;98594.47;4945968;28;20113;-77
2023/06/26 05:58:35;;;;;;;9.60;7.60;;;;;;;22.50;67.93;98590.19;4967922;28;20027;-77
2023/06/26 06:01:01;;;;;;;9.02;8.02;;;;;;;22.80;69.48;98574.63;4967539;28;20052;-77
2023/06/26 06:03:26;;;;;;;9.30;7.68;;;;;;;22.85;69.34;98577.91;4945157;28;20038;-77
2023/06/26 06:05:51;;;;;;;9.57;6.97;;;;;;;23.02;67.09;98585.13;4962450;28;20497;-77
2023/06/26 06:08:17;;;;;;;12.48;7.35;;;;;;;22.85;68.35;98583.34;4965122;28;20122;-77
2023/06/26 06:10:42;;;;;;;9.55;8.45;;;;;;;22.94;71.61;98575.91;4962301;28;20038;-77
2023/06/26 06:13:08;;;;;;;9.38;7.10;;;;;;;23.31;64.45;98576.78;4964541;28;20087;-77
2023/06/26 06:15:33;;;;;;;9.32;7.40;;;;;;;23.22;65.87;98567.13;4961796;28;20118;-77
2023/06/26 06:17:58;;;;;;;8.38;7.55;;;;;;;23.24;66.73;98562.91;4952626;28;20067;-79
2023/06/26 06:20:25;;;;;;;10.00;8.02;;;;;;;23.42;65.80;98574.44;4948817;28;20035;-78
2023/06/26 06:22:50;;;;;;;11.50;8.25;;;;;;;23.41;68.62;98576.38;4964526;28;20041;-78
2023/06/26 06:25:16;;;;;;;10.30;7.65;;;;;;;23.42;65.36;98577.97;4962904;28;20035;-79
2023/06/26 06:27:42;;;;;;;10.43;7.03;;;;;;;23.47;64.86;98569.56;4949436;28;20495;-79
2023/06/26 06:30:08;;;;;;;8.73;7.78;;;;;;;23.49;67.29;98570.03;4965489;28;20109;-78
2023/06/26 06:32:33;;;;;;;10.23;7.85;;;;;;;23.52;68.16;98572.09;4970213;28;20038;-79
2023/06/26 06:34:59;;;;;;;12.48;7.90;;;;;;;23.54;66.31;98569.00;4969854;28;20435;-78
2023/06/26 06:37:24;;;;;;;10.95;8.70;;;;;;;23.47;67.47;98564.13;4968642;28;20058;-78
2023/06/26 06:39:50;;;;;;;13.60;7.88;;;;;;;23.56;66.94;98567.53;4947758;28;20078;-78
2023/06/26 06:42:15;;;;;;;9.88;7.47;;;;;;;23.73;67.03;98564.59;4949402;28;20039;-79
2023/06/26 06:44:40;;;;;;;12.68;9.30;;;;;;;23.68;65.68;98564.00;4951206;29;20062;-78
2023/06/26 06:47:06;;;;;;;8.38;7.57;;;;;;;23.65;67.52;98554.59;4966664;28;20105;-78
2023/06/26 06:49:31;;;;;;;11.32;7.70;;;;;;;23.79;64.74;98563.22;4951689;28;20038;-79
2023/06/26 06:51:57;;;;;;;14.20;7.38;;;;;;;23.88;64.32;98565.81;4959528;28;20963;-78
2023/06/26 06:54:26;;;;;;;10.57;8.60;;;;;;;23.81;65.35;98557.41;4968623;28;20039;-79
2023/06/26 06:56:51;;;;;;;9.50;7.93;;;;;;;23.74;65.63;98559.94;4971337;28;20538;-78
2023/06/26 06:59:16;;;;;;;12.63;7.75;;;;;;;23.81;66.42;98557.41;4955452;28;20174;-78
2023/06/26 07:01:42;;;;;;;8.73;7.68;;;;;;;23.93;65.44;98562.88;4964662;28;20114;-79
2023/06/26 07:04:07;;;;;;;9.23;7.47;;;;;;;23.95;64.89;98570.69;4954702;28;20049;-79
2023/06/26 07:06:34;;;;;;;11.00;7.82;;;;;;;23.93;64.18;98567.53;4969189;28;20034;-76
2023/06/26 07:08:59;;;;;;;8.98;7.65;;;;;;;24.05;64.01;98570.28;4957746;28;20066;-77
2023/06/26 07:11:25;;;;;;;11.77;7.75;;;;;;;24.01;64.43;98572.03;4952074;28;20530;-76
2023/06/26 07:13:50;;;;;;;9.23;7.55;;;;;;;24.03;66.50;98572.50;4950419;28;20963;-76
2023/06/26 07:16:15;;;;;;;10.40;7.72;;;;;;;24.11;63.84;98558.00;4945491;28;20039;-77
2023/06/26 07:18:41;;;;;;;9.18;7.65;;;;;;;24.14;65.51;98560.00;4969624;28;20027;-77
2023/06/26 07:21:07;;;;;;;10.38;8.43;;;;;;;24.19;66.09;98562.50;4956487;28;20038;-79
2023/06/26 07:23:32;;;;;;;10.45;7.22;;;;;;;24.22;64.47;98561.84;4962224;28;20403;-77
2023/06/26 07:25:58;;;;;;;10.20;7.80;;;;;;;24.22;67.78;98551.69;4964131;28;20377;-79
2023/06/26 07:28:23;;;;;;;9.68;8.35;;;;;;;24.09;67.42;98552.84;4956573;28;20395;-78
2023/06/26 07:30:49;;;;;;;9.50;8.38;;;;;;;23.93;66.30;98548.44;4943083;29;20036;-78
2023/06/26 07:33:14;;;;;;;14.80;9.30;;;;;;;23.90;67.14;98549.91;4967653;28;20031;-78
2023/06/26 07:35:39;;;;;;;10.18;9.18;;;;;;;23.80;67.13;98532.09;4965027;28;20479;-78
2023/06/26 07:38:05;;;;;;;8.60;7.80;;;;;;;23.96;68.66;98550.50;4965826;28;20427;-78
2023/06/26 07:40:30;;;;;;;12.77;8.50;;;;;;;24.28;65.95;98544.09;4967755;28;20502;-77
2023/06/26 07:42:58;;;;;;;16.38;8.85;;;;;;;24.11;66.56;98547.88;4960966;28;20039;-77
2023/06/26 07:45:23;;;;;;;9.05;8.15;;;;;;;24.03;67.57;98548.75;4964800;28;20142;-77
2023/06/26 07:47:48;;;;;;;9.75;8.75;;;;;;;24.12;67.67;98541.28;4952551;28;20113;-77
2023/06/26 07:50:19;;;;;;;9.82;8.02;;;;;;;24.53;64.84;98543.66;4936004;28;20039;-77
2023/06/26 07:52:45;;;;;;;8.52;7.63;;;;;;;24.52;65.06;98547.53;4945781;28;20035;-78
2023/06/26 07:55:10;;;;;;;9.45;8.38;;;;;;;24.27;66.80;98532.38;4959276;28;20046;-77
2023/06/26 07:57:35;;;;;;;10.38;8.20;;;;;;;24.80;63.99;98544.03;4967922;28;20122;-77
2023/06/26 08:00:01;;;;;;;11.98;8.68;;;;;;;25.11;63.35;98541.34;4947444;28;20090;-78
2023/06/26 08:02:26;;;;;;;8.07;7.28;;;;;;;25.18;63.23;98533.34;4967831;28;20434;-78
2023/06/26 08:04:52;;;;;;;9.60;7.25;;;;;;;25.14;66.94;98543.41;4948791;28;20483;-78
2023/06/26 08:07:18;;;;;;;12.98;7.72;;;;;;;24.83;68.41;98526.94;4970211;28;20027;-78
2023/06/26 08:09:44;;;;;;;11.13;8.52;;;;;;;25.25;63.12;98534.31;4971421;28;20081;-78
2023/06/26 08:12:09;;;;;;;10.88;7.95;;;;;;;25.61;62.30;98540.69;4967898;28;20038;-78
2023/06/26 08:14:35;;;;;;;8.13;6.97;;;;;;;25.76;61.09;98553.53;4950030;28;20123;-78
2023/06/26 08:17:00;;;;;;;8.00;7.22;;;;;;;25.85;60.16;98540.47;4950187;28;20570;-78
2023/06/26 08:19:26;;;;;;;7.95;7.25;;;;;;;25.94;59.00;98550.06;4951364;28;20039;-78
2023/06/26 08:21:51;;;;;;;8.02;7.30;;;;;;;26.03;58.38;98547.13;4966248;28;20151;-78
2023/06/26 08:24:18;;;;;;;8.45;7.63;;;;;;;26.09;58.30;98558.63;4962008;28;20165;-78
2023/06/26 08:26:44;;;;;;;10.02;7.72;;;;;;;26.12;58.05;98546.97;4968967;28;20074;-78
2023/06/26 08:29:10;;;;;;;11.00;7.60;;;;;;;26.15;56.35;98541.56;4950941;28;20031;-78
2023/06/26 08:31:36;;;;;;;8.32;7.53;;;;;;;26.16;57.27;98556.03;4958586;28;20039;-78
2023/06/26 08:34:03;;;;;;;10.05;7.63;;;;;;;26.09;59.63;98551.22;4962897;28;20050;-78
2023/06/26 08:36:28;;;;;;;7.85;7.15;;;;;;;26.16;57.85;98550.56;4963730;28;20495;-78
2023/06/26 08:38:54;;;;;;;36.47;10.43;;;;;;;26.26;57.40;98545.31;4930681;28;20039;-78
2023/06/26 08:41:19;;;;;;;12.13;7.80;;;;;;;26.25;56.90;98543.75;4948337;28;20491;-78
2023/06/26 08:43:44;;;;;;;8.90;7.78;;;;;;;26.23;57.56;98545.25;4961135;28;20035;-78
2023/06/26 08:46:10;;;;;;;10.27;7.50;;;;;;;26.27;56.83;98543.38;4966195;28;20047;-78
2023/06/26 08:48:37;;;;;;;8.43;7.60;;;;;;;26.25;56.50;98532.00;4966779;28;20050;-77
2023/06/26 08:51:16;;;;;;;8.30;7.45;;;;;;;26.19;56.29;98549.88;4966034;28;20107;-78
2023/06/26 08:53:55;;;;;;;7.68;6.97;;;;;;;26.16;57.54;98537.69;4957234;28;20050;-78
2023/06/26 08:56:22;;;;;;;7.50;6.80;;;;;;;26.32;55.92;98541.13;4966458;28;20584;-78
2023/06/26 08:58:48;;;;;;;8.10;7.45;;;;;;;26.36;55.76;98538.50;4961402;28;20089;-78
2023/06/26 09:01:14;;;;;;;8.68;7.40;;;;;;;26.35;55.78;98545.13;4967215;28;20043;-77
2023/06/26 09:03:41;;;;;;;11.10;7.85;;;;;;;26.32;55.27;98543.88;4964141;28;20031;-77
2023/06/26 09:06:07;;;;;;;10.90;8.93;;;;;;;26.45;55.40;98548.06;4939112;28;20039;-77
2023/06/26 09:08:32;;;;;;;8.13;7.32;;;;;;;26.47;54.96;98526.59;4962893;28;20031;-77
2023/06/26 09:10:57;;;;;;;8.48;7.57;;;;;;;26.53;55.01;98516.97;4964474;28;20054;-78
2023/06/26 09:13:23;;;;;;;9.43;7.95;;;;;;;26.59;54.67;98504.56;4931849;28;20035;-78
2023/06/26 09:15:48;;;;;;;9.95;7.80;;;;;;;26.68;55.06;98512.53;4965989;28;20516;-78
2023/06/26 09:18:21;;;;;;;11.13;7.95;;;;;;;26.90;54.13;98505.53;4953845;28;20035;-78
2023/06/26 09:20:47;;;;;;;10.00;8.70;;;;;;;26.87;54.34;98523.50;4971487;28;20039;-78
2023/06/26 09:23:13;;;;;;;9.02;7.78;;;;;;;27.05;54.11;98532.84;4956883;28;20031;-78
2023/06/26 09:25:40;;;;;;;7.68;6.88;;;;;;;27.09;54.18;98539.16;4973710;28;20056;-78
2023/06/26 09:28:06;;;;;;;9.73;8.73;;;;;;;27.16;54.29;98539.31;4970960;28;20038;-78
2023/06/26 09:30:35;;;;;;;7.90;7.20;;;;;;;27.23;54.01;98541.38;4969400;28;20483;-78
2023/06/26 09:33:27;;;;;;;8.63;7.63;;;;;;;27.32;53.83;98544.66;4965909;28;20034;-78
2023/06/26 09:35:53;;;;;;;9.65;7.78;;;;;;;27.45;53.48;98533.19;4957695;28;20035;-78
2023/06/26 09:38:18;;;;;;;9.63;8.73;;;;;;;27.66;53.27;98540.94;4951111;28;20038;-78
2023/06/26 09:40:44;;;;;;;8.77;7.72;;;;;;;27.89;53.11;98549.16;4948018;28;20035;-78
2023/06/26 09:43:13;;;;;;;8.10;7.38;;;;;;;27.95;53.06;98542.16;4971521;28;20136;-78
2023/06/26 09:45:39;;;;;;;10.13;7.97;;;;;;;27.89;53.04;98527.97;4970066;28;20177;-78
2023/06/26 09:48:08;;;;;;;8.77;7.55;;;;;;;28.08;52.86;98538.06;4968578;28;20127;-78
2023/06/26 09:50:34;;;;;;;9.05;8.15;;;;;;;28.01;54.32;98519.56;4964208;28;20061;-78
2023/06/26 09:53:09;;;;;;;8.32;7.30;;;;;;;28.09;52.98;98523.97;4972954;28;20031;-78
2023/06/26 09:55:39;;;;;;;8.73;7.82;;;;;;;28.07;52.82;98536.47;4969070;28;20035;-78
2023/06/26 09:58:06;;;;;;;10.07;7.03;;;;;;;27.89;53.67;98541.69;4968102;28;20058;-78
2023/06/26 10:00:32;;;;;;;12.88;9.15;;;;;;;27.97;54.64;98534.34;4965986;28;20031;-78
2023/06/26 10:02:59;;;;;;;9.60;8.70;;;;;;;27.91;54.98;98530.34;4963972;28;20086;-78
2023/06/26 10:05:24;;;;;;;9.90;8.10;;;;;;;27.99;53.50;98524.63;4965806;28;20399;-78
2023/06/26 10:07:50;;;;;;;9.70;7.97;;;;;;;27.95;53.86;98537.47;4971612;28;20042;-78
2023/06/26 10:10:17;;;;;;;11.23;8.98;;;;;;;28.02;54.63;98532.09;4953412;28;20546;-78
2023/06/26 10:12:47;;;;;;;9.57;8.57;;;;;;;27.93;53.95;98542.56;4969351;28;20049;-78
2023/06/26 10:15:16;;;;;;;10.00;9.00;;;;;;;27.78;54.19;98534.47;4969129;28;20117;-78
2023/06/26 10:17:42;;;;;;;11.00;7.93;;;;;;;28.01;54.28;98547.00;4964836;28;20105;-77
2023/06/26 10:20:11;;;;;;;10.13;8.95;;;;;;;28.06;54.27;98546.69;4966099;28;20027;-77
2023/06/26 10:22:44;;;;;;;10.57;8.95;;;;;;;27.86;54.97;98553.41;4969163;28;20443;-77
2023/06/26 10:25:12;;;;;;;11.32;8.40;;;;;;;27.70;54.61;98541.00;4965859;28;20034;-78
2023/06/26 10:27:43;;;;;;;10.55;7.70;;;;;;;27.37;54.52;98563.56;4952807;28;20046;-77
2023/06/26 10:30:19;;;;;;;9.88;8.18;;;;;;;27.65;55.28;98549.56;4966499;28;20105;-77
2023/06/26 10:32:46;;;;;;;9.02;7.60;;;;;;;27.74;54.23;98558.31;4951327;28;20039;-77
2023/06/26 10:35:12;;;;;;;14.02;8.80;;;;;;;27.60;54.55;98553.41;4960891;28;20098;-77
2023/06/26 10:37:44;;;;;;;10.18;8.27;;;;;;;27.77;54.24;98558.38;4963788;28;20050;-77
2023/06/26 10:40:09;;;;;;;7.93;7.13;;;;;;;27.61;55.04;98563.19;4970355;28;20586;-77
2023/06/26 10:42:36;;;;;;;10.05;8.80;;;;;;;27.64;55.28;98559.72;4968348;28;20118;-77
2023/06/26 10:45:16;;;;;;;12.43;8.65;;;;;;;27.40;55.01;98549.13;4967839;28;20027;-77
2023/06/26 10:47:45;;;;;;;12.02;8.25;;;;;;;27.77;54.26;98563.06;4969184;28;20030;-77
2023/06/26 10:50:20;;;;;;;8.68;7.45;;;;;;;27.92;53.60;98576.63;4963786;28;20046;-77
2023/06/26 10:52:45;;;;;;;13.77;8.77;;;;;;;27.54;54.19;98585.03;4970044;28;20022;-77
2023/06/26 10:55:11;;;;;;;11.18;7.68;;;;;;;27.62;54.16;98583.19;4970053;28;20100;-77
2023/06/26 10:57:38;;;;;;;12.57;8.63;;;;;;;27.58;53.75;98596.84;4967058;28;20174;-77
2023/06/26 11:00:21;;;;;;;10.50;7.50;;;;;;;27.44;54.28;98577.41;4967386;28;20436;-78
2023/06/26 11:02:50;;;;;;;9.85;7.80;;;;;;;27.55;54.09;98594.84;4971528;28;20577;-78
2023/06/26 11:05:29;;;;;;;11.35;8.02;;;;;;;27.43;53.52;98606.00;4964317;28;20070;-77
2023/06/26 11:08:07;;;;;;;13.70;8.18;;;;;;;26.94;54.43;98616.78;4960722;28;20031;-77
2023/06/26 11:10:53;;;;;;;10.00;7.93;;;;;;;26.67;55.25;98637.72;4968624;28;20089;-78
2023/06/26 11:13:19;;;;;;;9.40;7.57;;;;;;;26.54;54.59;98655.44;4965091;28;20027;-77
2023/06/26 11:15:46;;;;;;;13.55;8.05;;;;;;;26.18;56.40;98682.34;4960596;28;20037;-78
2023/06/26 11:18:12;;;;;;;14.40;9.07;;;;;;;25.62;62.04;98693.41;4959892;28;20420;-77
2023/06/26 11:20:38;;;;;;;18.10;9.57;;;;;;;25.19;61.43;98672.31;4966309;28;20026;-77
2023/06/26 11:23:07;;;;;;;14.70;8.85;;;;;;;24.96;63.20;98678.69;4949413;28;20062;-77
2023/06/26 11:25:37;;;;;;;23.00;11.23;;;;;;;24.68;65.07;98667.69;4967382;28;20026;-77
2023/06/26 11:28:05;;;;;;;24.63;15.30;;;;;;;24.31;67.04;98666.94;4966662;28;20364;-76